Time;durP1;ratioP1;P1;durP2;ratioP2;P2;SDS_P1;SDS_P2;PMS_P1;PMS_P2;Temp;Humidity;BMP_temperature;BMP_pressure;BME280_temperature;BME280_humidity;BME280_pressure;Samples;Min_cycle;Max_cycle;Signal;HPM_P1;HPM_P2
2020/12/28 00:02:16;;;;;;;13.20;9.75;;;;;;;;;;5093471;28;20016;-73
2020/12/28 00:04:43;;;;;;;13.25;9.43;;;;;;;;;;5112755;28;20039;-76
2020/12/28 00:07:09;;;;;;;13.60;9.75;;;;;;;;;;5116446;27;20076;-75
2020/12/28 00:09:35;;;;;;;13.13;9.68;;;;;;;;;;5094107;28;20111;-73
2020/12/28 00:12:02;;;;;;;13.18;9.82;;;;;;;;;;5114009;28;20020;-81
2020/12/28 00:14:28;;;;;;;13.82;9.88;;;;;;;;;;5111082;27;20023;-82
2020/12/28 00:16:54;;;;;;;14.32;10.10;;;;;;;;;;5107519;27;20035;-76
2020/12/28 00:19:20;;;;;;;16.42;9.95;;;;;;;;;;5111890;27;20114;-72
2020/12/28 00:21:46;;;;;;;17.98;10.10;;;;;;;;;;5127915;27;20030;-72
2020/12/28 00:24:13;;;;;;;13.85;10.18;;;;;;;;;;5108168;27;20479;-73
2020/12/28 00:26:43;;;;;;;14.23;10.50;;;;;;;;;;5100148;27;20023;-74
2020/12/28 00:29:09;;;;;;;13.75;9.75;;;;;;;;;;5112396;27;20055;-73
2020/12/28 00:31:35;;;;;;;13.65;9.77;;;;;;;;;;5125001;27;20427;-73
2020/12/28 00:34:02;;;;;;;14.23;9.98;;;;;;;;;;5119062;27;20031;-73
2020/12/28 00:36:28;;;;;;;13.85;9.77;;;;;;;;;;5091743;27;20026;-75
2020/12/28 00:38:54;;;;;;;13.95;10.13;;;;;;;;;;5124639;27;20024;-76
2020/12/28 00:41:20;;;;;;;14.98;9.50;;;;;;;;;;5094115;27;20038;-74
2020/12/28 00:43:46;;;;;;;17.27;8.77;;;;;;;;;;5103381;28;20110;-75
2020/12/28 00:46:13;;;;;;;15.10;10.05;;;;;;;;;;5094506;28;20049;-77
2020/12/28 00:48:39;;;;;;;13.55;9.38;;;;;;;;;;5130575;27;20072;-76
2020/12/28 00:51:05;;;;;;;14.60;9.65;;;;;;;;;;5113729;27;20027;-73
2020/12/28 00:53:31;;;;;;;13.05;9.25;;;;;;;;;;5113551;27;20473;-77
2020/12/28 00:55:58;;;;;;;13.82;10.00;;;;;;;;;;5115385;27;20032;-75
2020/12/28 00:58:25;;;;;;;14.63;9.45;;;;;;;;;;5123325;27;20022;-73
2020/12/28 01:00:51;;;;;;;12.93;9.02;;;;;;;;;;5103742;27;20058;-73
2020/12/28 01:03:17;;;;;;;18.05;9.15;;;;;;;;;;5103706;27;20041;-70
2020/12/28 01:05:43;;;;;;;12.43;9.18;;;;;;;;;;5121397;27;20069;-75
2020/12/28 01:08:09;;;;;;;12.90;9.13;;;;;;;;;;5125033;27;20064;-73
2020/12/28 01:10:36;;;;;;;12.70;9.13;;;;;;;;;;5128926;27;20065;-80
2020/12/28 01:13:02;;;;;;;14.32;9.00;;;;;;;;;;5113347;28;20012;-83
2020/12/28 01:15:29;;;;;;;11.73;8.88;;;;;;;;;;5115780;27;20026;-73
2020/12/28 01:17:55;;;;;;;13.25;8.93;;;;;;;;;;5126544;27;20105;-73
2020/12/28 01:20:21;;;;;;;12.50;8.80;;;;;;;;;;5108616;27;20199;-73
2020/12/28 01:22:48;;;;;;;13.23;8.90;;;;;;;;;;5123503;27;20466;-75
2020/12/28 01:25:14;;;;;;;11.63;8.15;;;;;;;;;;5123090;27;20054;-73
2020/12/28 01:27:40;;;;;;;12.27;8.25;;;;;;;;;;5115346;27;20108;-73
2020/12/28 01:30:06;;;;;;;11.73;7.93;;;;;;;;;;5116075;27;20410;-76
2020/12/28 01:32:32;;;;;;;12.57;8.90;;;;;;;;;;5109688;27;20008;-73
2020/12/28 01:34:58;;;;;;;12.57;7.35;;;;;;;;;;5127522;27;20024;-72
2020/12/28 01:37:24;;;;;;;12.32;7.63;;;;;;;;;;5112525;27;20022;-70
2020/12/28 01:39:50;;;;;;;10.82;7.60;;;;;;;;;;5120029;27;20035;-76
2020/12/28 01:42:16;;;;;;;11.35;7.72;;;;;;;;;;5103142;28;20043;-74
2020/12/28 01:44:43;;;;;;;11.55;8.30;;;;;;;;;;5122097;27;20023;-71
2020/12/28 01:47:09;;;;;;;10.60;7.55;;;;;;;;;;5102401;27;20018;-76
2020/12/28 01:49:35;;;;;;;11.20;8.15;;;;;;;;;;5123513;27;20517;-74
2020/12/28 01:52:01;;;;;;;10.85;7.70;;;;;;;;;;5130059;27;20574;-76
2020/12/28 01:54:29;;;;;;;11.30;7.28;;;;;;;;;;5095964;27;20023;-75
2020/12/28 01:56:57;;;;;;;11.82;8.45;;;;;;;;;;5109180;28;20024;-74
2020/12/28 01:59:23;;;;;;;11.02;7.70;;;;;;;;;;5113569;27;20401;-74
2020/12/28 02:01:51;;;;;;;10.57;7.65;;;;;;;;;;5117382;27;20375;-71
2020/12/28 02:04:17;;;;;;;11.45;6.93;;;;;;;;;;5101891;27;20077;-73
2020/12/28 02:06:44;;;;;;;10.07;6.78;;;;;;;;;;5129056;27;20020;-72
2020/12/28 02:09:10;;;;;;;12.25;7.53;;;;;;;;;;5101099;27;20026;-70
2020/12/28 02:11:36;;;;;;;10.43;7.38;;;;;;;;;;5096145;27;20087;-73
2020/12/28 02:14:02;;;;;;;10.13;6.75;;;;;;;;;;5118024;27;20034;-74
2020/12/28 02:16:28;;;;;;;10.57;7.20;;;;;;;;;;5122948;27;20074;-77
2020/12/28 02:18:54;;;;;;;10.30;6.88;;;;;;;;;;5127209;27;20032;-76
2020/12/28 02:21:20;;;;;;;10.80;7.43;;;;;;;;;;5120453;27;20023;-72
2020/12/28 02:23:46;;;;;;;13.85;7.53;;;;;;;;;;5131929;27;20314;-74
2020/12/28 02:26:12;;;;;;;9.68;6.97;;;;;;;;;;5115896;27;20428;-80
2020/12/28 02:28:39;;;;;;;11.93;7.90;;;;;;;;;;5096099;27;20030;-77
2020/12/28 02:31:05;;;;;;;10.38;7.38;;;;;;;;;;5117647;27;20027;-75
2020/12/28 02:33:31;;;;;;;10.45;7.68;;;;;;;;;;5117063;27;20028;-75
2020/12/28 02:35:57;;;;;;;12.45;7.60;;;;;;;;;;5119211;27;20019;-78
2020/12/28 02:38:23;;;;;;;10.23;7.47;;;;;;;;;;5095605;28;20051;-71
2020/12/28 02:40:49;;;;;;;10.23;7.50;;;;;;;;;;5111237;27;20062;-70
2020/12/28 02:43:15;;;;;;;10.55;6.88;;;;;;;;;;5123683;27;20024;-70
2020/12/28 02:45:41;;;;;;;13.88;7.85;;;;;;;;;;5099843;28;20028;-70
2020/12/28 02:48:07;;;;;;;10.63;6.82;;;;;;;;;;5106976;27;20051;-69
2020/12/28 02:50:34;;;;;;;12.40;7.30;;;;;;;;;;5104442;27;20024;-70
2020/12/28 02:53:00;;;;;;;12.20;7.32;;;;;;;;;;5117225;27;20023;-71
2020/12/28 02:55:26;;;;;;;11.38;7.22;;;;;;;;;;5102089;28;20019;-71
2020/12/28 02:57:52;;;;;;;11.50;7.30;;;;;;;;;;5106839;27;20019;-72
2020/12/28 03:00:18;;;;;;;12.15;8.20;;;;;;;;;;5108559;27;20035;-71
2020/12/28 03:02:44;;;;;;;10.82;7.65;;;;;;;;;;5090359;28;20491;-71
2020/12/28 03:05:10;;;;;;;10.73;7.05;;;;;;;;;;5124517;28;20023;-71
2020/12/28 03:07:36;;;;;;;11.57;7.20;;;;;;;;;;5091667;28;20020;-72
2020/12/28 03:10:03;;;;;;;13.73;8.13;;;;;;;;;;5098058;28;20054;-72
2020/12/28 03:12:29;;;;;;;11.18;7.90;;;;;;;;;;5097698;28;20028;-72
2020/12/28 03:14:55;;;;;;;12.13;8.20;;;;;;;;;;5116739;28;20102;-72
2020/12/28 03:17:21;;;;;;;11.02;7.70;;;;;;;;;;5121891;28;20043;-72
2020/12/28 03:19:47;;;;;;;10.02;7.32;;;;;;;;;;5102226;28;20039;-72
2020/12/28 03:22:13;;;;;;;11.85;7.93;;;;;;;;;;5110608;28;20023;-72
2020/12/28 03:24:39;;;;;;;11.15;7.55;;;;;;;;;;5099035;28;20084;-72
2020/12/28 03:27:05;;;;;;;9.98;7.28;;;;;;;;;;5125671;28;20046;-72
2020/12/28 03:29:34;;;;;;;10.15;7.53;;;;;;;;;;5121234;28;20046;-72
2020/12/28 03:32:00;;;;;;;10.48;7.47;;;;;;;;;;5125227;28;20095;-70
2020/12/28 03:34:26;;;;;;;11.00;7.82;;;;;;;;;;5112769;28;20073;-72
2020/12/28 03:36:52;;;;;;;12.57;7.82;;;;;;;;;;5115562;28;20019;-73
2020/12/28 03:39:18;;;;;;;10.63;6.88;;;;;;;;;;5117588;28;20039;-72
2020/12/28 03:41:44;;;;;;;11.98;8.48;;;;;;;;;;5082650;28;20027;-72
2020/12/28 03:44:11;;;;;;;13.48;7.78;;;;;;;;;;5114945;28;20077;-72
2020/12/28 03:46:37;;;;;;;10.60;7.53;;;;;;;;;;5127825;28;20020;-72
2020/12/28 03:49:04;;;;;;;14.50;7.75;;;;;;;;;;5117176;28;20062;-72
2020/12/28 03:51:30;;;;;;;13.23;7.47;;;;;;;;;;5119197;28;20016;-72
2020/12/28 03:53:56;;;;;;;12.25;8.95;;;;;;;;;;5098961;28;20020;-72
2020/12/28 03:56:22;;;;;;;13.75;7.95;;;;;;;;;;5107129;28;20035;-72
2020/12/28 03:58:48;;;;;;;10.63;7.93;;;;;;;;;;5121893;28;20057;-72
2020/12/28 04:01:14;;;;;;;13.38;8.55;;;;;;;;;;5100971;28;20051;-73
2020/12/28 04:03:40;;;;;;;13.07;7.95;;;;;;;;;;5102192;27;20058;-72
2020/12/28 04:06:06;;;;;;;11.30;8.27;;;;;;;;;;5119377;27;20054;-72
2020/12/28 04:08:32;;;;;;;13.68;8.60;;;;;;;;;;5130135;27;20032;-72
2020/12/28 04:10:58;;;;;;;11.50;7.78;;;;;;;;;;5119932;27;20098;-72
2020/12/28 04:13:24;;;;;;;9.35;6.97;;;;;;;;;;5125590;27;20466;-72
2020/12/28 04:15:51;;;;;;;10.60;7.70;;;;;;;;;;5111439;27;20417;-72
2020/12/28 04:18:17;;;;;;;11.52;8.27;;;;;;;;;;5124592;27;20051;-72
2020/12/28 04:20:43;;;;;;;14.48;8.48;;;;;;;;;;5130972;27;20111;-72
2020/12/28 04:23:09;;;;;;;10.05;7.53;;;;;;;;;;5103012;27;20050;-73
2020/12/28 04:25:35;;;;;;;13.15;8.50;;;;;;;;;;5119177;27;20103;-72
2020/12/28 04:28:01;;;;;;;11.68;8.23;;;;;;;;;;5112053;27;20468;-72
2020/12/28 04:30:27;;;;;;;12.25;7.95;;;;;;;;;;5112561;27;20529;-72
2020/12/28 04:32:54;;;;;;;12.65;7.70;;;;;;;;;;5117987;27;20016;-72
2020/12/28 04:35:20;;;;;;;12.35;7.60;;;;;;;;;;5126980;27;20473;-72
2020/12/28 04:37:46;;;;;;;10.50;7.55;;;;;;;;;;5126018;27;20023;-72
2020/12/28 04:40:12;;;;;;;10.98;8.32;;;;;;;;;;5099859;28;20084;-73
2020/12/28 04:42:44;;;;;;;13.05;8.48;;;;;;;;;;5107175;27;20024;-72
2020/12/28 04:45:11;;;;;;;10.73;7.78;;;;;;;;;;5089717;27;20050;-72
2020/12/28 04:47:37;;;;;;;12.02;8.98;;;;;;;;;;5123006;27;20024;-72
2020/12/28 04:50:04;;;;;;;13.25;9.23;;;;;;;;;;5091258;28;20400;-72
2020/12/28 04:52:30;;;;;;;12.40;9.00;;;;;;;;;;5128639;27;20046;-72
2020/12/28 04:54:56;;;;;;;13.18;8.63;;;;;;;;;;5111520;28;20081;-72
2020/12/28 04:57:22;;;;;;;12.30;8.35;;;;;;;;;;5083682;28;20016;-72
2020/12/28 04:59:55;;;;;;;18.05;8.90;;;;;;;;;;5117339;27;20042;-72
2020/12/28 05:02:22;;;;;;;13.30;8.75;;;;;;;;;;5094880;27;20020;-72
2020/12/28 05:04:48;;;;;;;11.93;8.75;;;;;;;;;;5129914;27;20378;-72
2020/12/28 05:07:15;;;;;;;14.65;9.63;;;;;;;;;;5117520;27;20204;-72
2020/12/28 05:09:41;;;;;;;14.80;8.98;;;;;;;;;;5127421;27;20023;-72
2020/12/28 05:12:07;;;;;;;13.25;8.07;;;;;;;;;;5117463;27;20011;-73
2020/12/28 05:14:33;;;;;;;15.57;9.35;;;;;;;;;;5111247;27;20019;-73
2020/12/28 05:17:07;;;;;;;13.68;8.57;;;;;;;;;;5103096;27;20054;-73
2020/12/28 05:19:36;;;;;;;11.38;7.85;;;;;;;;;;5094951;27;20106;-72
2020/12/28 05:22:03;;;;;;;11.88;8.15;;;;;;;;;;5118532;27;20024;-73
2020/12/28 05:24:29;;;;;;;13.27;8.07;;;;;;;;;;5107824;27;20089;-72
2020/12/28 05:26:56;;;;;;;12.65;8.68;;;;;;;;;;5102225;27;20034;-72
2020/12/28 05:29:24;;;;;;;11.40;7.80;;;;;;;;;;5110344;27;20023;-72
2020/12/28 05:31:51;;;;;;;11.50;8.32;;;;;;;;;;5120400;27;20091;-72
2020/12/28 05:34:17;;;;;;;14.32;8.32;;;;;;;;;;5112592;27;20494;-72
2020/12/28 05:36:46;;;;;;;13.13;8.23;;;;;;;;;;5129596;27;20023;-72
2020/12/28 05:39:14;;;;;;;14.55;8.60;;;;;;;;;;5101963;27;20177;-72
2020/12/28 05:41:40;;;;;;;15.07;8.23;;;;;;;;;;5092973;28;20534;-72
2020/12/28 05:44:12;;;;;;;11.45;8.00;;;;;;;;;;5095039;28;20024;-73
2020/12/28 05:46:38;;;;;;;14.40;8.48;;;;;;;;;;5129264;27;20015;-73
2020/12/28 05:49:06;;;;;;;12.05;8.55;;;;;;;;;;5118819;27;20136;-72
2020/12/28 05:51:36;;;;;;;11.80;8.15;;;;;;;;;;5120935;27;20028;-72
2020/12/28 05:54:07;;;;;;;11.93;8.48;;;;;;;;;;5117934;27;20039;-72
2020/12/28 05:56:34;;;;;;;12.90;9.53;;;;;;;;;;5128781;27;20118;-73
2020/12/28 05:59:03;;;;;;;11.38;8.55;;;;;;;;;;5106122;27;20252;-72
2020/12/28 06:01:30;;;;;;;12.55;8.07;;;;;;;;;;5122016;27;20522;-72
2020/12/28 06:04:01;;;;;;;10.73;7.28;;;;;;;;;;5106423;27;20028;-73
2020/12/28 06:06:28;;;;;;;12.90;8.23;;;;;;;;;;5102124;27;20112;-73
2020/12/28 06:08:54;;;;;;;13.15;8.57;;;;;;;;;;5097414;27;20027;-73
2020/12/28 06:11:21;;;;;;;12.93;7.70;;;;;;;;;;5104597;28;20026;-72
2020/12/28 06:13:47;;;;;;;12.27;8.10;;;;;;;;;;5113215;27;20502;-72
2020/12/28 06:16:21;;;;;;;12.23;7.50;;;;;;;;;;5096325;28;20042;-72
2020/12/28 06:18:56;;;;;;;10.32;7.13;;;;;;;;;;5114982;27;20099;-72
2020/12/28 06:21:23;;;;;;;11.30;8.00;;;;;;;;;;5120287;27;20371;-73
2020/12/28 06:23:50;;;;;;;15.38;9.48;;;;;;;;;;5124150;27;20068;-72
2020/12/28 06:26:20;;;;;;;9.98;6.57;;;;;;;;;;5108651;27;20505;-72
2020/12/28 06:28:46;;;;;;;10.95;7.55;;;;;;;;;;5115548;27;20027;-73
2020/12/28 06:31:12;;;;;;;11.77;7.00;;;;;;;;;;5104294;28;20060;-72
2020/12/28 06:33:48;;;;;;;12.88;7.95;;;;;;;;;;5113786;27;20034;-72
2020/12/28 06:36:15;;;;;;;13.95;6.90;;;;;;;;;;5115772;27;20127;-72
2020/12/28 06:38:41;;;;;;;11.27;7.90;;;;;;;;;;5126250;27;20072;-72
2020/12/28 06:41:07;;;;;;;9.90;6.85;;;;;;;;;;5125269;27;20031;-72
2020/12/28 06:43:41;;;;;;;24.45;8.68;;;;;;;;;;5113100;27;20030;-72
2020/12/28 06:46:07;;;;;;;12.02;7.75;;;;;;;;;;5105159;27;20031;-72
2020/12/28 06:48:33;;;;;;;11.13;7.88;;;;;;;;;;5092583;28;20488;-72
2020/12/28 06:51:06;;;;;;;10.68;7.53;;;;;;;;;;5126218;27;20098;-72
2020/12/28 06:53:32;;;;;;;14.07;8.00;;;;;;;;;;5112523;27;20047;-72
2020/12/28 06:56:08;;;;;;;12.35;7.55;;;;;;;;;;5108890;27;20016;-72
2020/12/28 06:58:35;;;;;;;13.38;7.00;;;;;;;;;;5090198;28;20379;-72
2020/12/28 07:01:04;;;;;;;13.80;8.02;;;;;;;;;;5101616;27;20429;-72
2020/12/28 07:03:31;;;;;;;17.55;8.82;;;;;;;;;;5116724;28;20416;-72
2020/12/28 07:05:58;;;;;;;12.05;7.30;;;;;;;;;;5109354;28;20467;-72
2020/12/28 07:08:25;;;;;;;11.93;7.68;;;;;;;;;;5107336;28;20428;-72
2020/12/28 07:10:56;;;;;;;11.38;7.35;;;;;;;;;;5097436;28;20480;-72
2020/12/28 07:13:22;;;;;;;12.88;8.48;;;;;;;;;;5104225;28;20397;-72
2020/12/28 07:15:48;;;;;;;12.98;7.13;;;;;;;;;;5111024;28;20023;-72
2020/12/28 07:18:14;;;;;;;9.68;6.35;;;;;;;;;;5093552;28;20375;-72
2020/12/28 07:20:40;;;;;;;11.23;7.05;;;;;;;;;;5112798;28;20419;-72
2020/12/28 07:23:06;;;;;;;11.38;6.93;;;;;;;;;;5106470;28;20394;-72
2020/12/28 07:25:32;;;;;;;12.55;6.82;;;;;;;;;;5128577;28;20011;-72
2020/12/28 07:27:58;;;;;;;14.80;8.10;;;;;;;;;;5099126;28;20024;-72
2020/12/28 07:30:24;;;;;;;10.95;6.72;;;;;;;;;;5104864;28;20013;-72
2020/12/28 07:32:56;;;;;;;13.45;7.22;;;;;;;;;;5108533;28;20027;-71
2020/12/28 07:35:22;;;;;;;10.32;6.88;;;;;;;;;;5101292;28;20496;-72
2020/12/28 07:37:49;;;;;;;10.93;7.10;;;;;;;;;;5109143;27;20020;-72
2020/12/28 07:40:15;;;;;;;12.88;7.53;;;;;;;;;;5110978;27;20119;-72
2020/12/28 07:42:41;;;;;;;10.68;6.45;;;;;;;;;;5131834;27;20019;-72
2020/12/28 07:45:08;;;;;;;12.50;7.05;;;;;;;;;;5121663;27;20028;-72
2020/12/28 07:47:40;;;;;;;10.45;6.35;;;;;;;;;;5124490;27;20035;-72
2020/12/28 07:50:08;;;;;;;10.57;5.90;;;;;;;;;;5115502;27;20032;-72
2020/12/28 07:52:37;;;;;;;13.43;6.30;;;;;;;;;;5130282;27;20026;-72
2020/12/28 07:55:03;;;;;;;13.45;7.00;;;;;;;;;;5120745;27;20099;-72
2020/12/28 07:57:43;;;;;;;14.18;6.70;;;;;;;;;;5128792;27;20023;-72
2020/12/28 08:00:13;;;;;;;10.88;6.70;;;;;;;;;;5099111;28;20364;-72
2020/12/28 08:02:58;;;;;;;12.13;6.70;;;;;;;;;;5113793;27;20031;-72
2020/12/28 08:05:25;;;;;;;10.13;5.88;;;;;;;;;;5125598;27;20019;-73
2020/12/28 08:07:51;;;;;;;11.85;7.32;;;;;;;;;;5095153;28;20073;-72
2020/12/28 08:10:17;;;;;;;15.45;8.60;;;;;;;;;;5131061;27;20015;-72
2020/12/28 08:12:51;;;;;;;11.73;6.70;;;;;;;;;;5117956;27;20450;-72
2020/12/28 08:15:25;;;;;;;11.38;7.15;;;;;;;;;;5111458;27;20033;-73
2020/12/28 08:17:51;;;;;;;11.65;6.75;;;;;;;;;;5121652;27;20061;-72
2020/12/28 08:20:17;;;;;;;13.35;6.75;;;;;;;;;;5127973;27;20097;-72
2020/12/28 08:22:52;;;;;;;10.65;6.40;;;;;;;;;;5113271;27;20027;-72
2020/12/28 08:25:18;;;;;;;13.75;7.07;;;;;;;;;;5110349;27;20532;-72
2020/12/28 08:27:44;;;;;;;10.98;6.53;;;;;;;;;;5100714;28;20024;-73
2020/12/28 08:30:10;;;;;;;12.10;6.53;;;;;;;;;;5123749;27;20467;-73
2020/12/28 08:32:38;;;;;;;15.23;7.18;;;;;;;;;;5112623;27;20024;-72
2020/12/28 08:35:05;;;;;;;12.52;6.95;;;;;;;;;;5107432;27;20037;-72
2020/12/28 08:37:31;;;;;;;10.90;6.47;;;;;;;;;;5090884;28;20023;-73
2020/12/28 08:39:57;;;;;;;12.23;6.72;;;;;;;;;;5113609;28;20062;-73
2020/12/28 08:42:34;;;;;;;13.63;5.97;;;;;;;;;;5095749;28;20076;-73
2020/12/28 08:45:03;;;;;;;10.93;5.93;;;;;;;;;;5122480;27;20019;-73
2020/12/28 08:47:30;;;;;;;10.30;6.53;;;;;;;;;;5090399;28;20054;-73
2020/12/28 08:49:56;;;;;;;12.68;6.63;;;;;;;;;;5115064;27;20520;-73
2020/12/28 08:52:23;;;;;;;12.77;6.40;;;;;;;;;;5096690;28;20046;-72
2020/12/28 08:54:59;;;;;;;10.50;6.50;;;;;;;;;;5093833;28;20061;-72
2020/12/28 08:57:26;;;;;;;12.48;6.28;;;;;;;;;;5111715;27;20027;-73
2020/12/28 08:59:53;;;;;;;16.17;7.63;;;;;;;;;;5118921;27;20028;-73
2020/12/28 09:02:20;;;;;;;17.48;7.03;;;;;;;;;;5113720;28;20078;-73
2020/12/28 09:04:46;;;;;;;12.75;8.43;;;;;;;;;;5113129;28;20031;-73
2020/12/28 09:07:13;;;;;;;13.00;7.57;;;;;;;;;;5113766;28;20012;-73
2020/12/28 09:09:40;;;;;;;18.35;8.73;;;;;;;;;;5113619;28;20080;-73
2020/12/28 09:12:07;;;;;;;16.48;7.75;;;;;;;;;;5113670;28;20054;-74
2020/12/28 09:14:33;;;;;;;13.50;8.45;;;;;;;;;;5112416;28;20561;-73
2020/12/28 09:16:59;;;;;;;16.05;9.02;;;;;;;;;;5113311;28;20039;-73
2020/12/28 09:19:25;;;;;;;17.88;8.52;;;;;;;;;;5095123;28;20087;-73
2020/12/28 09:21:52;;;;;;;15.13;8.75;;;;;;;;;;5108874;27;20066;-72
2020/12/28 09:24:18;;;;;;;15.82;7.90;;;;;;;;;;5117784;27;20045;-74
2020/12/28 09:26:44;;;;;;;18.45;8.85;;;;;;;;;;5113084;27;20024;-73
2020/12/28 09:29:10;;;;;;;12.98;8.32;;;;;;;;;;5094110;28;20026;-73
2020/12/28 09:31:36;;;;;;;13.73;8.18;;;;;;;;;;5109899;27;20494;-73
2020/12/28 09:34:02;;;;;;;14.52;7.85;;;;;;;;;;5104958;28;20119;-73
2020/12/28 09:36:28;;;;;;;13.90;8.10;;;;;;;;;;5091024;28;20024;-73
2020/12/28 09:38:54;;;;;;;12.63;7.60;;;;;;;;;;5111382;28;20073;-73
2020/12/28 09:41:20;;;;;;;15.02;8.35;;;;;;;;;;5112156;28;20023;-73
2020/12/28 09:43:46;;;;;;;13.57;8.60;;;;;;;;;;5112125;28;20336;-73
2020/12/28 09:46:12;;;;;;;13.68;8.15;;;;;;;;;;5093953;28;20031;-73
2020/12/28 09:48:39;;;;;;;13.52;8.35;;;;;;;;;;5111185;27;20107;-71
2020/12/28 09:51:05;;;;;;;11.35;7.43;;;;;;;;;;5112191;28;20016;-73
2020/12/28 09:53:31;;;;;;;18.95;8.73;;;;;;;;;;5094002;28;20027;-73
2020/12/28 09:55:58;;;;;;;13.52;9.38;;;;;;;;;;5112559;28;20639;-72
2020/12/28 09:58:24;;;;;;;17.45;9.65;;;;;;;;;;5093842;28;20498;-72
2020/12/28 10:00:50;;;;;;;18.63;8.93;;;;;;;;;;5112134;28;20042;-72
2020/12/28 10:03:16;;;;;;;17.30;9.70;;;;;;;;;;5107355;27;20482;-71
2020/12/28 10:05:42;;;;;;;18.25;10.07;;;;;;;;;;5106616;27;20035;-72
2020/12/28 10:08:09;;;;;;;16.77;9.63;;;;;;;;;;5094106;28;20080;-72
2020/12/28 10:10:35;;;;;;;15.57;8.60;;;;;;;;;;5099188;27;20778;-70
2020/12/28 10:13:01;;;;;;;21.77;10.98;;;;;;;;;;5102874;28;20073;-70
2020/12/28 10:15:27;;;;;;;18.98;10.57;;;;;;;;;;5108761;28;20083;-72
2020/12/28 10:18:12;;;;;;;13.35;8.65;;;;;;;;;;5081558;28;20051;-72
2020/12/28 10:20:38;;;;;;;15.77;9.55;;;;;;;;;;5111688;28;20036;-71
2020/12/28 10:23:04;;;;;;;16.70;9.80;;;;;;;;;;5092313;28;20504;-72
2020/12/28 10:25:30;;;;;;;17.42;9.77;;;;;;;;;;5092892;27;20062;-75
2020/12/28 10:27:56;;;;;;;20.48;9.68;;;;;;;;;;5111309;28;20425;-78
2020/12/28 10:30:22;;;;;;;13.60;9.38;;;;;;;;;;5108772;28;20051;-74
2020/12/28 10:32:48;;;;;;;14.43;9.43;;;;;;;;;;5111446;28;20020;-76
2020/12/28 10:35:14;;;;;;;16.50;9.43;;;;;;;;;;5111219;28;20027;-75
2020/12/28 10:37:40;;;;;;;16.88;11.27;;;;;;;;;;5111178;28;20091;-72
2020/12/28 10:40:06;;;;;;;14.20;9.43;;;;;;;;;;5109744;28;20089;-74
2020/12/28 10:42:33;;;;;;;18.52;12.20;;;;;;;;;;5104897;28;20043;-75
2020/12/28 10:44:59;;;;;;;13.73;8.82;;;;;;;;;;5093034;28;20118;-75
2020/12/28 10:47:25;;;;;;;16.35;10.90;;;;;;;;;;5109932;27;20073;-74
2020/12/28 10:49:51;;;;;;;17.80;11.13;;;;;;;;;;5113067;27;20027;-75
2020/12/28 10:52:17;;;;;;;18.10;11.52;;;;;;;;;;5111273;28;20034;-70
2020/12/28 10:54:43;;;;;;;17.23;10.30;;;;;;;;;;5107554;28;20020;-68
2020/12/28 10:57:09;;;;;;;17.70;10.13;;;;;;;;;;5105482;28;20020;-68
2020/12/28 10:59:35;;;;;;;24.67;9.55;;;;;;;;;;5110838;28;20028;-70
2020/12/28 11:02:01;;;;;;;16.45;9.00;;;;;;;;;;5110969;28;20034;-71
2020/12/28 11:04:27;;;;;;;15.90;10.20;;;;;;;;;;5110122;28;20035;-70
2020/12/28 11:06:53;;;;;;;15.82;9.57;;;;;;;;;;5109993;28;20023;-70
2020/12/28 11:09:19;;;;;;;14.70;9.38;;;;;;;;;;5111161;28;20019;-70
2020/12/28 11:11:49;;;;;;;19.40;9.98;;;;;;;;;;5113199;27;20573;-70
2020/12/28 11:14:15;;;;;;;17.52;10.70;;;;;;;;;;5114664;28;20019;-70
2020/12/28 11:16:41;;;;;;;18.30;9.23;;;;;;;;;;5115235;27;20048;-71
2020/12/28 11:19:07;;;;;;;16.35;8.70;;;;;;;;;;5115257;27;20028;-70
2020/12/28 11:21:33;;;;;;;19.75;9.50;;;;;;;;;;5104100;28;20028;-70
2020/12/28 11:24:01;;;;;;;18.60;8.32;;;;;;;;;;5111225;28;20062;-69
2020/12/28 11:26:27;;;;;;;17.98;9.30;;;;;;;;;;5114945;28;20061;-70
2020/12/28 11:28:54;;;;;;;17.80;9.63;;;;;;;;;;5096893;28;20046;-70
2020/12/28 11:31:20;;;;;;;21.00;9.85;;;;;;;;;;5104931;27;20088;-71
2020/12/28 11:33:46;;;;;;;21.27;9.48;;;;;;;;;;5114596;28;20031;-70
2020/12/28 11:36:12;;;;;;;23.40;10.68;;;;;;;;;;5114794;28;20062;-70
2020/12/28 11:38:38;;;;;;;19.55;9.80;;;;;;;;;;5114035;28;20059;-69
2020/12/28 11:41:05;;;;;;;16.70;9.68;;;;;;;;;;5114611;27;20027;-69
2020/12/28 11:43:31;;;;;;;18.90;10.63;;;;;;;;;;5114415;27;20026;-69
2020/12/28 11:45:57;;;;;;;18.42;9.98;;;;;;;;;;5114934;28;20055;-71
2020/12/28 11:48:24;;;;;;;19.17;10.13;;;;;;;;;;5107405;28;20047;-68
2020/12/28 11:50:50;;;;;;;25.85;11.38;;;;;;;;;;5094692;28;20031;-70
2020/12/28 11:53:16;;;;;;;21.92;11.05;;;;;;;;;;5096846;28;20095;-71
2020/12/28 11:58:27;;;;;;;24.77;9.73;;;;;;;;;;5115353;28;20554;-70
2020/12/28 12:00:53;;;;;;;20.90;9.65;;;;;;;;;;5096531;28;20035;-70
2020/12/28 12:03:20;;;;;;;19.85;10.60;;;;;;;;;;5114710;28;20024;-69
2020/12/28 12:05:46;;;;;;;20.23;11.18;;;;;;;;;;5102164;28;20024;-69
2020/12/28 12:08:12;;;;;;;27.50;9.80;;;;;;;;;;5094358;28;20059;-69
2020/12/28 12:10:38;;;;;;;16.25;9.90;;;;;;;;;;5094284;28;20528;-69
2020/12/28 12:13:04;;;;;;;23.20;11.98;;;;;;;;;;5094491;28;20489;-69
2020/12/28 12:15:30;;;;;;;18.83;11.10;;;;;;;;;;5094230;28;20467;-69
2020/12/28 12:17:56;;;;;;;23.60;10.77;;;;;;;;;;5094505;28;20043;-69
2020/12/28 12:20:22;;;;;;;23.63;11.85;;;;;;;;;;5109690;28;20038;-70
2020/12/28 12:22:48;;;;;;;20.20;10.52;;;;;;;;;;5100241;27;20050;-70
2020/12/28 12:25:14;;;;;;;20.00;10.93;;;;;;;;;;5110332;27;20030;-70
2020/12/28 12:27:40;;;;;;;19.70;9.77;;;;;;;;;;5110522;28;20008;-71
2020/12/28 12:30:06;;;;;;;28.73;10.68;;;;;;;;;;5111174;28;20133;-69
2020/12/28 12:32:32;;;;;;;22.17;11.05;;;;;;;;;;5094367;28;20021;-70
2020/12/28 12:34:58;;;;;;;22.85;11.07;;;;;;;;;;5082505;28;20050;-71
2020/12/28 12:37:24;;;;;;;19.92;12.10;;;;;;;;;;5092343;28;20107;-70
2020/12/28 12:39:50;;;;;;;25.15;10.23;;;;;;;;;;5105594;28;20389;-72
2020/12/28 12:42:17;;;;;;;21.52;9.75;;;;;;;;;;5102411;28;20384;-73
2020/12/28 12:44:44;;;;;;;20.75;10.32;;;;;;;;;;5075646;28;20035;-70
2020/12/28 12:47:11;;;;;;;22.88;10.25;;;;;;;;;;5093825;28;20016;-69
2020/12/28 12:49:37;;;;;;;18.27;10.02;;;;;;;;;;5093698;28;20024;-70
2020/12/28 12:52:18;;;;;;;16.92;8.30;;;;;;;;;;5075619;28;20020;-70
2020/12/28 12:54:44;;;;;;;22.13;9.05;;;;;;;;;;5107834;28;20020;-70
2020/12/28 12:57:10;;;;;;;21.67;8.88;;;;;;;;;;5113135;28;20070;-69
2020/12/28 13:02:24;;;;;;;23.65;11.85;;;;;;;;;;5113961;28;20050;-70
2020/12/28 13:04:50;;;;;;;22.92;12.45;;;;;;;;;;5112794;28;20012;-70
2020/12/28 13:07:17;;;;;;;26.88;13.88;;;;;;;;;;5111520;28;20023;-70
2020/12/28 13:09:43;;;;;;;23.17;13.05;;;;;;;;;;5093383;28;20058;-70
2020/12/28 13:12:09;;;;;;;24.38;13.85;;;;;;;;;;5088609;28;20080;-69
2020/12/28 13:14:35;;;;;;;19.50;12.00;;;;;;;;;;5105035;28;20141;-71
2020/12/28 13:17:01;;;;;;;21.77;12.00;;;;;;;;;;5093186;28;20043;-70
2020/12/28 13:19:27;;;;;;;21.35;11.07;;;;;;;;;;5111714;28;20474;-70
2020/12/28 13:21:53;;;;;;;17.35;10.50;;;;;;;;;;5112926;28;20023;-70
2020/12/28 13:24:19;;;;;;;18.65;10.23;;;;;;;;;;5113430;28;20045;-69
2020/12/28 13:26:48;;;;;;;18.40;10.70;;;;;;;;;;5095020;28;20028;-70
2020/12/28 13:29:14;;;;;;;17.58;10.23;;;;;;;;;;5113290;28;20016;-70
2020/12/28 13:31:40;;;;;;;17.25;10.15;;;;;;;;;;5105903;27;20023;-70
2020/12/28 13:34:06;;;;;;;17.75;10.70;;;;;;;;;;5101516;28;20024;-70
2020/12/28 13:36:33;;;;;;;19.67;10.88;;;;;;;;;;5113026;28;20099;-70
2020/12/28 13:38:59;;;;;;;14.40;9.77;;;;;;;;;;5113216;28;20028;-70
2020/12/28 13:41:25;;;;;;;16.67;10.32;;;;;;;;;;5112920;28;20512;-70
2020/12/28 13:43:51;;;;;;;21.35;10.65;;;;;;;;;;5112827;28;20019;-70
2020/12/28 13:46:18;;;;;;;16.98;10.55;;;;;;;;;;5110522;28;20055;-70
2020/12/28 13:48:44;;;;;;;17.95;9.70;;;;;;;;;;5112207;28;20470;-70
2020/12/28 13:51:10;;;;;;;14.32;8.98;;;;;;;;;;5112788;28;20320;-70
2020/12/28 13:53:36;;;;;;;17.38;9.93;;;;;;;;;;5112724;28;20521;-70
2020/12/28 13:56:03;;;;;;;15.23;9.38;;;;;;;;;;5112697;28;20036;-70
2020/12/28 13:58:29;;;;;;;15.20;9.90;;;;;;;;;;5112455;28;20051;-71
2020/12/28 14:00:55;;;;;;;17.35;10.27;;;;;;;;;;5112414;28;20031;-70
2020/12/28 14:03:21;;;;;;;16.55;10.40;;;;;;;;;;5093358;28;20473;-70
2020/12/28 14:05:47;;;;;;;17.05;10.25;;;;;;;;;;5095576;28;20020;-70
2020/12/28 14:08:16;;;;;;;15.65;9.40;;;;;;;;;;5092140;28;20023;-70
2020/12/28 14:10:43;;;;;;;14.95;9.35;;;;;;;;;;5088799;28;20107;-70
2020/12/28 14:13:10;;;;;;;13.77;8.77;;;;;;;;;;5092012;28;20070;-70
2020/12/28 14:15:36;;;;;;;13.95;9.30;;;;;;;;;;5091818;28;20090;-70
2020/12/28 14:18:02;;;;;;;15.40;9.13;;;;;;;;;;5091613;28;20074;-70
2020/12/28 14:20:28;;;;;;;17.20;9.50;;;;;;;;;;5092468;28;20471;-70
2020/12/28 14:22:55;;;;;;;14.30;9.48;;;;;;;;;;5073390;28;20044;-70
2020/12/28 14:25:21;;;;;;;15.90;9.40;;;;;;;;;;5091616;28;20028;-70
2020/12/28 14:27:47;;;;;;;14.60;9.18;;;;;;;;;;5091484;28;20536;-70
2020/12/28 14:30:13;;;;;;;13.00;8.20;;;;;;;;;;5091608;28;20478;-70
2020/12/28 14:32:39;;;;;;;14.27;8.88;;;;;;;;;;5091541;28;20474;-70